createdAt,value
2023-01-15T00:02:04.841Z,0
2023-01-15T00:02:45.493Z,0
2023-01-15T00:03:25.896Z,0
2023-01-15T00:04:06.968Z,0
2023-01-15T00:04:47.495Z,0
2023-01-15T00:07:25.944Z,0
2023-01-15T00:08:06.498Z,0
2023-01-15T00:08:47.020Z,0
2023-01-15T00:09:27.530Z,0
2023-01-15T00:13:02.266Z,0
2023-01-15T00:13:42.825Z,0
2023-01-15T00:14:23.372Z,0
2023-01-15T00:15:03.942Z,0
2023-01-15T00:18:26.599Z,0
2023-01-15T00:19:07.193Z,0
2023-01-15T00:19:47.711Z,0
2023-01-15T00:20:28.281Z,0
2023-01-15T00:21:08.813Z,0
2023-01-15T00:21:49.429Z,0
2023-01-15T00:22:29.980Z,0
2023-01-15T00:23:10.473Z,0
2023-01-15T00:23:50.991Z,0
2023-01-15T00:30:07.265Z,0
2023-01-15T00:30:47.741Z,0
2023-01-15T00:31:28.360Z,0
2023-01-15T00:32:08.805Z,0
2023-01-15T00:36:11.970Z,0
2023-01-15T00:36:52.519Z,0
2023-01-15T00:37:33.786Z,0
2023-01-15T00:38:14.311Z,0
2023-01-15T00:38:54.836Z,0
2023-01-15T00:39:35.429Z,0
2023-01-15T00:40:15.933Z,0
2023-01-15T00:40:56.459Z,0
2023-01-15T00:43:50.698Z,0
2023-01-15T00:44:31.253Z,0
2023-01-15T00:45:11.878Z,0
2023-01-15T00:45:52.353Z,0
2023-01-15T00:48:11.065Z,0
2023-01-15T00:48:53.297Z,0
2023-01-15T00:49:33.839Z,0
2023-01-15T00:52:08.495Z,0
2023-01-15T00:52:49.007Z,0
2023-01-15T00:53:29.548Z,0
2023-01-15T00:54:10.077Z,0
2023-01-15T00:59:45.753Z,0
2023-01-15T01:00:26.287Z,0
2023-01-15T01:01:06.885Z,0
2023-01-15T01:01:48.384Z,0
2023-01-15T01:04:27.431Z,0
2023-01-15T01:05:08.606Z,0
2023-01-15T01:05:49.146Z,0
2023-01-15T01:06:29.708Z,0
2023-01-15T01:10:09.503Z,0
2023-01-15T01:10:50.055Z,0
2023-01-15T01:11:30.642Z,0
2023-01-15T01:12:11.193Z,0
2023-01-15T01:14:51.167Z,0
2023-01-15T01:15:31.717Z,0
2023-01-15T01:16:12.303Z,0
2023-01-15T01:16:52.769Z,0
2023-01-15T01:20:56.026Z,0
2023-01-15T01:21:36.560Z,0
2023-01-15T01:22:17.112Z,0
2023-01-15T01:22:57.666Z,0
2023-01-15T01:23:38.204Z,0
2023-01-15T01:24:19.664Z,0
2023-01-15T01:25:00.229Z,0
2023-01-15T01:30:37.535Z,0
2023-01-15T01:31:18.180Z,0
2023-01-15T01:31:58.702Z,0
2023-01-15T01:32:39.233Z,0
2023-01-15T01:34:52.347Z,0
2023-01-15T01:35:33.135Z,0
2023-01-15T01:36:14.489Z,0
2023-01-15T01:36:55.043Z,0
2023-01-15T01:39:37.224Z,0
2023-01-15T01:40:17.732Z,0
2023-01-15T01:42:57.235Z,0
2023-01-15T01:43:37.729Z,0
2023-01-15T01:44:18.294Z,0
2023-01-15T01:44:58.845Z,0
2023-01-15T01:48:54.230Z,0
2023-01-15T01:49:34.745Z,0
2023-01-15T01:50:15.270Z,0
2023-01-15T01:50:56.408Z,0
2023-01-15T01:52:57.986Z,0
2023-01-15T01:53:38.526Z,0
2023-01-15T01:54:19.040Z,0
2023-01-15T01:54:59.604Z,0
2023-01-15T01:55:40.108Z,0
2023-01-15T01:56:20.642Z,0
2023-01-15T01:57:01.193Z,0
2023-01-15T01:57:41.732Z,0
2023-01-15T01:58:22.304Z,0
2023-01-15T01:59:02.826Z,0
2023-01-15T02:01:56.492Z,0
2023-01-15T02:02:36.939Z,0
2023-01-15T02:03:17.468Z,0
2023-01-15T02:03:58.036Z,0
2023-01-15T02:08:01.182Z,0
2023-01-15T02:08:41.679Z,0
2023-01-15T02:09:22.212Z,0
2023-01-15T02:10:03.490Z,0
2023-01-15T02:10:44.003Z,0
2023-01-15T02:11:24.519Z,0
2023-01-15T02:12:05.039Z,0
2023-01-15T02:12:45.557Z,0
2023-01-15T02:13:26.083Z,0
2023-01-15T02:17:41.625Z,0
2023-01-15T02:18:22.154Z,0
2023-01-15T02:19:03.431Z,0
2023-01-15T02:19:44.440Z,0
2023-01-15T02:21:57.948Z,0
2023-01-15T02:22:38.596Z,0
2023-01-15T02:23:21.097Z,0
2023-01-15T02:24:03.179Z,0
2023-01-15T02:26:30.491Z,0
2023-01-15T02:27:11.003Z,0
2023-01-15T02:27:51.580Z,0
2023-01-15T02:28:32.094Z,0
2023-01-15T02:32:06.805Z,0
2023-01-15T02:32:47.413Z,0
2023-01-15T02:33:27.908Z,0
2023-01-15T02:34:08.488Z,0
2023-01-15T02:36:41.586Z,0
2023-01-15T02:37:22.134Z,0
2023-01-15T02:38:02.726Z,0
2023-01-15T02:38:44.608Z,0
2023-01-15T02:40:46.217Z,0
2023-01-15T02:43:20.124Z,0
2023-01-15T02:44:00.655Z,0
2023-01-15T02:44:41.173Z,0
2023-01-15T02:45:21.717Z,0
2023-01-15T02:47:40.416Z,0
2023-01-15T02:48:20.957Z,0
2023-01-15T02:49:01.469Z,0
2023-01-15T02:49:42.020Z,0
2023-01-15T02:52:10.293Z,0
2023-01-15T02:52:50.787Z,0
2023-01-15T02:53:31.301Z,0
2023-01-15T02:54:11.848Z,0
2023-01-15T02:57:05.380Z,0
2023-01-15T02:57:45.919Z,0
2023-01-15T02:58:26.433Z,0
2023-01-15T02:59:06.959Z,0
2023-01-15T03:03:10.108Z,0
2023-01-15T03:03:50.641Z,0
2023-01-15T03:04:31.191Z,0
2023-01-15T03:05:11.719Z,0
2023-01-15T03:05:52.238Z,0
2023-01-15T03:06:32.761Z,0
2023-01-15T03:07:13.275Z,0
2023-01-15T03:09:52.504Z,0
2023-01-15T03:10:33.938Z,0
2023-01-15T03:11:14.472Z,0
2023-01-15T03:11:54.979Z,0
2023-01-15T03:13:56.584Z,0
2023-01-15T03:14:37.110Z,0
2023-01-15T03:15:17.656Z,0
2023-01-15T03:15:58.174Z,0
2023-01-15T03:16:38.755Z,0
2023-01-15T03:17:19.220Z,0
2023-01-15T03:17:59.743Z,0
2023-01-15T03:18:40.270Z,0
2023-01-15T03:19:20.785Z,0
2023-01-15T03:20:01.328Z,0
2023-01-15T03:26:46.584Z,0
2023-01-15T03:27:27.124Z,0
2023-01-15T03:30:05.570Z,0
2023-01-15T03:30:46.138Z,0
2023-01-15T03:31:26.645Z,0
2023-01-15T03:32:07.167Z,0
2023-01-15T03:36:10.306Z,0
2023-01-15T03:38:49.046Z,0
2023-01-15T03:39:29.572Z,0
2023-01-15T03:40:11.893Z,0
2023-01-15T03:40:52.515Z,0
2023-01-15T03:43:05.999Z,0
2023-01-15T03:43:46.494Z,0
2023-01-15T03:44:27.047Z,0
2023-01-15T03:45:07.627Z,0
2023-01-15T03:49:10.908Z,0
2023-01-15T03:49:51.459Z,0
2023-01-15T03:50:32.015Z,0
2023-01-15T03:51:12.550Z,0
2023-01-15T03:51:53.153Z,0
2023-01-15T03:52:33.707Z,0
2023-01-15T03:53:14.241Z,0
2023-01-15T03:53:54.829Z,0
2023-01-15T03:54:35.308Z,0
2023-01-15T04:00:40.734Z,0
2023-01-15T04:01:21.375Z,0
2023-01-15T04:02:01.902Z,0
2023-01-15T04:02:42.336Z,0
2023-01-15T04:03:22.899Z,0
2023-01-15T04:04:04.279Z,0
2023-01-15T04:04:44.842Z,0
2023-01-15T04:05:25.392Z,0
2023-01-15T04:10:10.683Z,0
2023-01-15T04:12:38.722Z,0
2023-01-15T04:13:19.236Z,0
2023-01-15T04:14:00.060Z,0
2023-01-15T04:14:40.610Z,0
2023-01-15T04:18:03.404Z,0
2023-01-15T04:18:43.932Z,0
2023-01-15T04:19:24.526Z,0
2023-01-15T04:21:56.138Z,0
2023-01-15T04:22:36.627Z,0
2023-01-15T04:23:17.962Z,0
2023-01-15T04:23:59.087Z,0
2023-01-15T04:26:15.132Z,0
2023-01-15T04:26:55.666Z,0
2023-01-15T04:27:36.801Z,0
2023-01-15T04:28:17.356Z,0
2023-01-15T04:30:31.942Z,0
2023-01-15T04:31:12.572Z,0
2023-01-15T04:31:53.015Z,0
2023-01-15T04:32:33.557Z,0
2023-01-15T04:35:16.581Z,0
2023-01-15T04:37:29.834Z,0
2023-01-15T04:38:10.336Z,0
2023-01-15T04:38:50.907Z,0
2023-01-15T04:39:31.431Z,0
2023-01-15T04:42:54.798Z,0
2023-01-15T04:43:35.317Z,0
2023-01-15T04:44:16.394Z,0
2023-01-15T04:44:56.911Z,0
2023-01-15T04:45:37.425Z,0
2023-01-15T04:46:17.988Z,0
2023-01-15T04:46:58.465Z,0
2023-01-15T04:47:39.000Z,0
2023-01-15T04:55:04.892Z,0
2023-01-15T04:55:45.441Z,0
2023-01-15T04:56:25.946Z,0
2023-01-15T04:57:06.467Z,0
2023-01-15T04:57:46.997Z,0
2023-01-15T04:58:27.520Z,0
2023-01-15T04:59:08.133Z,0
2023-01-15T04:59:48.654Z,0
2023-01-15T05:05:54.873Z,0
2023-01-15T05:06:35.416Z,0
2023-01-15T05:07:15.934Z,0
2023-01-15T05:07:56.485Z,0
2023-01-15T05:08:37.033Z,0
2023-01-15T05:09:17.559Z,0
2023-01-15T05:09:58.126Z,0
2023-01-15T05:10:38.579Z,0
2023-01-15T05:11:19.109Z,0
2023-01-15T05:16:05.565Z,0
2023-01-15T05:16:46.053Z,0
2023-01-15T05:17:26.581Z,0
2023-01-15T05:18:07.111Z,0
2023-01-15T05:18:47.677Z,0
2023-01-15T05:19:28.204Z,0
2023-01-15T05:20:08.747Z,0
2023-01-15T05:27:10.550Z,0
2023-01-15T05:27:53.038Z,0
2023-01-15T05:28:35.568Z,0
2023-01-15T05:29:17.083Z,0
2023-01-15T05:31:30.659Z,0
2023-01-15T05:32:11.199Z,0
2023-01-15T05:32:51.759Z,0
2023-01-15T05:33:36.047Z,0
2023-01-15T05:35:50.131Z,0
2023-01-15T05:36:31.636Z,0
2023-01-15T05:37:12.192Z,0
2023-01-15T05:37:56.165Z,0
2023-01-15T05:38:36.677Z,0
2023-01-15T05:39:17.214Z,0
2023-01-15T05:39:57.773Z,0
2023-01-15T05:42:29.087Z,0
2023-01-15T05:43:11.379Z,0
2023-01-15T05:43:52.105Z,0
2023-01-15T05:46:30.653Z,0
2023-01-15T05:47:11.223Z,0
2023-01-15T05:47:51.741Z,0
2023-01-15T05:48:32.298Z,0
2023-01-15T05:52:35.566Z,0
2023-01-15T05:53:16.091Z,0
2023-01-15T05:53:56.609Z,0
2023-01-15T05:54:38.069Z,0
2023-01-15T05:57:16.550Z,0
2023-01-15T05:57:57.098Z,0
2023-01-15T05:58:37.617Z,0
2023-01-15T05:59:18.206Z,0
2023-01-15T06:02:13.490Z,0
2023-01-15T06:02:54.570Z,0
2023-01-15T06:03:35.182Z,0
2023-01-15T06:04:16.326Z,0
2023-01-15T06:04:56.877Z,0
2023-01-15T06:05:40.151Z,0
2023-01-15T06:06:20.779Z,0
2023-01-15T06:08:33.830Z,0
2023-01-15T06:09:14.361Z,0
2023-01-15T06:09:54.884Z,0
2023-01-15T06:10:35.414Z,0
2023-01-15T06:14:38.610Z,0
2023-01-15T06:15:19.099Z,0
2023-01-15T06:16:00.330Z,0
2023-01-15T06:16:41.396Z,0
2023-01-15T06:17:21.292Z,0
2023-01-15T06:18:01.799Z,0
2023-01-15T06:18:42.335Z,0
2023-01-15T06:19:22.895Z,0
2023-01-15T06:20:03.407Z,0
2023-01-15T06:22:56.735Z,0
2023-01-15T06:23:37.293Z,0
2023-01-15T06:24:17.851Z,0
2023-01-15T06:24:58.422Z,0
2023-01-15T06:27:11.414Z,0
2023-01-15T06:27:52.020Z,0
2023-01-15T06:28:32.651Z,0
2023-01-15T06:29:13.056Z,0
2023-01-15T06:32:36.334Z,0
2023-01-15T06:33:16.847Z,0
2023-01-15T06:33:57.416Z,0
2023-01-15T06:36:35.904Z,0
2023-01-15T06:37:17.407Z,0
2023-01-15T06:38:01.486Z,0
2023-01-15T06:38:42.791Z,0
2023-01-15T06:40:57.278Z,0
2023-01-15T06:41:37.842Z,0
2023-01-15T06:42:18.373Z,0
2023-01-15T06:42:58.909Z,0
2023-01-15T06:46:22.114Z,0
2023-01-15T06:47:02.603Z,0
2023-01-15T06:47:43.117Z,0
2023-01-15T06:48:23.698Z,0
2023-01-15T06:49:04.224Z,0
2023-01-15T06:49:44.747Z,0
2023-01-15T06:50:25.259Z,0
2023-01-15T06:51:05.871Z,0
2023-01-15T06:58:04.630Z,0
2023-01-15T06:58:49.621Z,0
2023-01-15T06:59:30.145Z,0
2023-01-15T07:00:11.308Z,0
2023-01-15T07:02:29.424Z,0
2023-01-15T07:03:09.980Z,0
2023-01-15T07:03:50.506Z,0
2023-01-15T07:04:31.001Z,0
2023-01-15T07:08:34.193Z,0
2023-01-15T07:09:15.465Z,0
2023-01-15T07:09:56.036Z,0
2023-01-15T07:10:36.618Z,0
2023-01-15T07:11:17.149Z,0
2023-01-15T07:11:57.663Z,0
2023-01-15T07:12:38.199Z,0
2023-01-15T07:13:18.719Z,0
2023-01-15T07:20:56.615Z,0
2023-01-15T07:21:37.244Z,0
2023-01-15T07:22:18.526Z,0
2023-01-15T07:22:59.018Z,0
2023-01-15T07:26:54.680Z,0
2023-01-15T07:27:35.199Z,0
2023-01-15T07:28:15.753Z,0
2023-01-15T07:28:56.281Z,0
2023-01-15T07:31:50.415Z,0
2023-01-15T07:32:30.923Z,0
2023-01-15T07:33:12.947Z,0
2023-01-15T07:33:53.452Z,0
2023-01-15T07:36:29.566Z,0
2023-01-15T07:37:10.156Z,0
2023-01-15T07:37:50.665Z,0
2023-01-15T07:40:29.130Z,5
2023-01-15T07:41:09.661Z,5
2023-01-15T07:41:50.184Z,5
2023-01-15T07:42:30.692Z,5
2023-01-15T07:46:33.881Z,10
2023-01-15T07:47:14.419Z,10
2023-01-15T07:47:54.926Z,10
2023-01-15T07:48:35.453Z,10
2023-01-15T07:49:15.960Z,10
2023-01-15T07:49:57.015Z,10
2023-01-15T07:52:35.479Z,10
2023-01-15T07:53:15.986Z,10
2023-01-15T07:53:56.566Z,10
2023-01-15T07:54:37.075Z,10
2023-01-15T07:58:53.483Z,10
2023-01-15T07:59:33.979Z,10
2023-01-15T08:00:15.387Z,10
2023-01-15T08:00:55.951Z,10
2023-01-15T08:01:37.097Z,10
2023-01-15T08:02:18.095Z,10
2023-01-15T08:02:59.543Z,10
2023-01-15T08:05:34.484Z,10
2023-01-15T08:06:15.023Z,10
2023-01-15T08:06:56.189Z,10
2023-01-15T08:07:37.999Z,10
2023-01-15T08:09:51.578Z,10
2023-01-15T08:10:32.099Z,10
2023-01-15T08:11:13.322Z,10
2023-01-15T08:11:53.838Z,10
2023-01-15T08:14:36.840Z,10
2023-01-15T08:15:17.409Z,10
2023-01-15T08:15:57.933Z,10
2023-01-15T08:16:38.509Z,10
2023-01-15T08:17:18.995Z,15
2023-01-15T08:17:59.490Z,15
2023-01-15T08:18:40.043Z,15
2023-01-15T08:19:20.578Z,15
2023-01-15T08:20:01.123Z,15
2023-01-15T08:27:59.531Z,15
2023-01-15T08:28:40.129Z,15
2023-01-15T08:29:20.584Z,15
2023-01-15T08:30:01.098Z,15
2023-01-15T08:32:55.509Z,15
2023-01-15T08:33:36.026Z,15
2023-01-15T08:34:16.552Z,15
2023-01-15T08:34:57.072Z,20
2023-01-15T08:39:12.401Z,20
2023-01-15T08:39:52.893Z,20
2023-01-15T08:40:33.446Z,20
2023-01-15T08:41:14.653Z,20
2023-01-15T08:43:33.722Z,20
2023-01-15T08:44:15.009Z,20
2023-01-15T08:44:55.572Z,20
2023-01-15T08:45:37.903Z,20
2023-01-15T08:47:52.593Z,20
2023-01-15T08:48:34.487Z,20
2023-01-15T08:49:15.594Z,20
2023-01-15T08:51:40.124Z,20
2023-01-15T08:52:20.695Z,20
2023-01-15T08:53:01.219Z,20
2023-01-15T08:53:41.745Z,20
2023-01-15T08:56:35.313Z,20
2023-01-15T08:57:15.852Z,20
2023-01-15T08:57:56.362Z,25
2023-01-15T08:58:36.908Z,25
2023-01-15T09:01:32.459Z,25
2023-01-15T09:02:12.782Z,25
2023-01-15T09:02:53.318Z,25
2023-01-15T09:03:33.862Z,25
2023-01-15T09:06:57.126Z,20
2023-01-15T09:07:37.677Z,25
2023-01-15T09:08:20.257Z,25
2023-01-15T09:08:58.678Z,25
2023-01-15T09:09:39.249Z,25
2023-01-15T09:12:18.330Z,20
2023-01-15T09:12:58.855Z,20
2023-01-15T09:13:39.393Z,20
2023-01-15T09:14:55.799Z,25
2023-01-15T09:18:23.124Z,30
2023-01-15T09:19:03.657Z,30
2023-01-15T09:19:44.171Z,30
2023-01-15T09:20:24.698Z,30
2023-01-15T09:21:05.259Z,30
2023-01-15T09:21:45.786Z,30
2023-01-15T09:22:26.323Z,30
2023-01-15T09:23:06.877Z,30
2023-01-15T09:23:47.430Z,30
2023-01-15T09:29:52.884Z,35
2023-01-15T09:30:33.499Z,35
2023-01-15T09:31:14.078Z,35
2023-01-15T09:31:54.536Z,35
2023-01-15T09:32:35.055Z,35
2023-01-15T09:33:15.583Z,35
2023-01-15T09:33:56.126Z,35
2023-01-15T09:34:36.642Z,35
2023-01-15T09:35:17.183Z,35
2023-01-15T09:35:57.689Z,35
2023-01-15T09:38:51.269Z,35
2023-01-15T09:39:31.780Z,35
2023-01-15T09:40:13.024Z,35
2023-01-15T09:40:53.587Z,35
2023-01-15T09:44:16.247Z,35
2023-01-15T09:44:56.777Z,35
2023-01-15T09:45:37.327Z,35
2023-01-15T09:46:17.888Z,35
2023-01-15T09:46:58.350Z,35
2023-01-15T09:47:38.873Z,35
2023-01-15T09:48:19.397Z,35
2023-01-15T09:48:59.923Z,35
2023-01-15T09:53:15.274Z,35
2023-01-15T09:53:55.787Z,30
2023-01-15T09:54:37.053Z,30
2023-01-15T09:55:18.266Z,30
2023-01-15T09:57:32.850Z,30
2023-01-15T09:58:13.379Z,30
2023-01-15T09:58:53.906Z,30
2023-01-15T09:59:35.072Z,30
2023-01-15T10:02:17.477Z,35
2023-01-15T10:02:58.087Z,35
2023-01-15T10:03:38.578Z,35
2023-01-15T10:04:19.112Z,35
2023-01-15T10:04:59.591Z,35
2023-01-15T10:05:40.138Z,35
2023-01-15T10:06:20.675Z,35
2023-01-15T10:07:01.154Z,35
2023-01-15T10:07:41.686Z,35
2023-01-15T10:08:22.257Z,35
2023-01-15T10:14:27.810Z,40
2023-01-15T10:17:06.526Z,45
2023-01-15T10:17:48.572Z,40
2023-01-15T10:18:28.934Z,45
2023-01-15T10:19:09.413Z,50
2023-01-15T10:21:30.001Z,55
2023-01-15T10:22:10.548Z,55
2023-01-15T10:22:51.063Z,55
2023-01-15T10:23:31.562Z,55
2023-01-15T10:26:14.621Z,60
2023-01-15T10:26:55.140Z,60
2023-01-15T10:27:35.668Z,60
2023-01-15T10:28:17.988Z,60
2023-01-15T10:28:56.772Z,55
2023-01-15T10:29:37.300Z,55
2023-01-15T10:30:17.823Z,50
2023-01-15T10:30:58.389Z,55
2023-01-15T10:31:38.877Z,55
2023-01-15T10:32:19.419Z,55
2023-01-15T10:39:04.647Z,55
2023-01-15T10:39:45.179Z,55
2023-01-15T10:40:25.700Z,55
2023-01-15T10:41:06.273Z,55
2023-01-15T10:41:46.793Z,55
2023-01-15T10:42:27.307Z,55
2023-01-15T10:43:07.832Z,55
2023-01-15T10:43:48.341Z,55
2023-01-15T10:44:30.378Z,50
2023-01-15T10:49:47.634Z,45
2023-01-15T10:50:28.150Z,45
2023-01-15T10:51:08.659Z,50
2023-01-15T10:51:49.319Z,50
2023-01-15T10:54:32.294Z,50
2023-01-15T10:55:12.850Z,55
2023-01-15T10:55:54.250Z,50
2023-01-15T10:56:34.767Z,50
2023-01-15T10:57:15.302Z,50
2023-01-15T10:58:05.399Z,50
2023-01-15T10:58:36.319Z,50
2023-01-15T11:01:14.904Z,55
2023-01-15T11:01:55.427Z,55
2023-01-15T11:02:36.045Z,55
2023-01-15T11:03:16.408Z,55
2023-01-15T11:07:19.502Z,55
2023-01-15T11:08:28.593Z,55
2023-01-15T11:09:07.685Z,55
2023-01-15T11:09:21.038Z,50
2023-01-15T11:10:01.574Z,50
2023-01-15T11:10:42.130Z,50
2023-01-15T11:11:22.637Z,50
2023-01-15T11:12:03.135Z,50
2023-01-15T11:12:43.692Z,50
2023-01-15T11:13:24.215Z,55
2023-01-15T11:20:09.518Z,50
2023-01-15T11:20:50.047Z,50
2023-01-15T11:21:30.571Z,55
2023-01-15T11:22:11.093Z,55
2023-01-15T11:22:51.628Z,60
2023-01-15T11:23:32.221Z,60
2023-01-15T11:24:12.779Z,60
2023-01-15T11:24:53.287Z,60
2023-01-15T11:25:33.837Z,60
2023-01-15T11:26:14.390Z,65
2023-01-15T11:31:39.567Z,75
2023-01-15T11:32:20.099Z,75
2023-01-15T11:33:00.633Z,80
2023-01-15T11:33:41.201Z,80
2023-01-15T11:34:22.142Z,85
2023-01-15T11:35:02.305Z,85
2023-01-15T11:35:42.813Z,80
2023-01-15T11:36:23.350Z,80
2023-01-15T11:37:03.854Z,80
2023-01-15T11:37:44.371Z,80
2023-01-15T11:44:01.657Z,85
2023-01-15T11:44:42.159Z,85
2023-01-15T11:45:22.814Z,85
2023-01-15T11:46:04.127Z,80
2023-01-15T11:48:32.459Z,80
2023-01-15T11:49:13.004Z,75
2023-01-15T11:49:53.516Z,75
2023-01-15T11:50:34.011Z,70
2023-01-15T11:53:57.189Z,90
2023-01-15T11:54:37.828Z,90
2023-01-15T11:55:18.329Z,95
2023-01-15T11:55:58.918Z,95
2023-01-15T11:56:39.408Z,100
2023-01-15T11:57:19.936Z,105
2023-01-15T11:59:58.441Z,125
2023-01-15T12:00:38.959Z,130
2023-01-15T12:01:19.548Z,135
2023-01-15T12:02:00.906Z,135
2023-01-15T12:04:03.342Z,140
2023-01-15T12:04:45.437Z,145
2023-01-15T12:05:24.298Z,145
2023-01-15T12:06:04.823Z,140
2023-01-15T12:08:43.316Z,185
2023-01-15T12:09:23.845Z,185
2023-01-15T12:10:05.106Z,185
2023-01-15T12:10:45.663Z,175
2023-01-15T12:14:08.297Z,180
2023-01-15T12:14:48.819Z,175
2023-01-15T12:15:29.343Z,170
2023-01-15T12:18:07.777Z,165
2023-01-15T12:18:48.303Z,175
2023-01-15T12:19:28.817Z,180
2023-01-15T12:20:09.343Z,175
2023-01-15T12:23:02.903Z,140
2023-01-15T12:23:43.420Z,140
2023-01-15T12:24:23.935Z,145
2023-01-15T12:25:04.459Z,155
2023-01-15T12:29:19.064Z,180
2023-01-15T12:29:59.604Z,190
2023-01-15T12:30:40.152Z,190
2023-01-15T12:31:21.613Z,195
2023-01-15T12:34:03.636Z,185
2023-01-15T12:34:44.150Z,180
2023-01-15T12:35:24.733Z,165
2023-01-15T12:36:05.252Z,150
2023-01-15T12:37:26.292Z,120
2023-01-15T12:38:06.799Z,115
2023-01-15T12:38:47.341Z,115
2023-01-15T12:39:27.853Z,105
2023-01-15T12:40:08.359Z,105
2023-01-15T12:44:23.084Z,100
2023-01-15T12:45:04.357Z,100
2023-01-15T12:45:44.642Z,100
2023-01-15T12:46:25.828Z,100
2023-01-15T12:48:40.357Z,95
2023-01-15T12:49:20.961Z,95
2023-01-15T12:50:01.500Z,95
2023-01-15T12:50:42.034Z,100
2023-01-15T12:53:25.022Z,95
2023-01-15T12:54:05.570Z,95
2023-01-15T12:54:46.785Z,95
2023-01-15T12:55:28.057Z,90
2023-01-15T12:56:08.631Z,95
2023-01-15T12:56:49.174Z,95
2023-01-15T12:57:29.718Z,95
2023-01-15T13:01:35.277Z,95
2023-01-15T13:02:15.815Z,95
2023-01-15T13:02:56.293Z,95
2023-01-15T13:03:36.832Z,95
2023-01-15T13:04:17.364Z,95
2023-01-15T13:04:57.900Z,95
2023-01-15T13:05:39.134Z,95
2023-01-15T13:06:19.666Z,95
2023-01-15T13:10:42.532Z,90
2023-01-15T13:11:23.093Z,70
2023-01-15T13:14:05.346Z,90
2023-01-15T13:14:46.785Z,90
2023-01-15T13:15:26.466Z,90
2023-01-15T13:16:07.051Z,90
2023-01-15T13:16:47.620Z,90
2023-01-15T13:17:28.175Z,90
2023-01-15T13:18:08.781Z,90
2023-01-15T13:18:49.331Z,90
2023-01-15T13:26:27.716Z,85
2023-01-15T13:27:08.292Z,85
2023-01-15T13:27:48.833Z,85
2023-01-15T13:28:29.374Z,85
2023-01-15T13:32:32.662Z,85
2023-01-15T13:33:13.213Z,85
2023-01-15T13:35:51.740Z,90
2023-01-15T13:36:32.249Z,95
2023-01-15T13:37:12.742Z,90
2023-01-15T13:37:53.332Z,85
2023-01-15T13:41:56.535Z,95
2023-01-15T13:42:37.088Z,100
2023-01-15T13:43:17.582Z,100
2023-01-15T13:43:58.106Z,95
2023-01-15T13:44:38.617Z,85
2023-01-15T13:45:19.160Z,65
2023-01-15T13:45:59.722Z,85
2023-01-15T13:46:40.168Z,85
2023-01-15T13:47:20.737Z,85
2023-01-15T13:48:01.287Z,85
2023-01-15T13:50:55.364Z,65
2023-01-15T13:51:37.555Z,65
2023-01-15T13:52:19.436Z,65
2023-01-15T13:52:59.939Z,80
2023-01-15T13:53:57.983Z,95
2023-01-15T13:54:38.510Z,95
2023-01-15T13:56:01.359Z,80
2023-01-15T13:56:42.801Z,70
2023-01-15T13:57:23.315Z,70
2023-01-15T13:58:03.909Z,70
2023-01-15T13:58:45.031Z,75
2023-01-15T14:01:31.142Z,110
2023-01-15T14:04:09.961Z,65
2023-01-15T14:04:50.506Z,55
2023-01-15T14:05:31.641Z,55
2023-01-15T14:06:12.152Z,60
2023-01-15T14:09:34.788Z,70
2023-01-15T14:10:15.320Z,70
2023-01-15T14:10:55.840Z,65
2023-01-15T14:11:36.383Z,65
2023-01-15T14:12:16.934Z,55
2023-01-15T14:12:57.481Z,50
2023-01-15T14:13:38.019Z,45
2023-01-15T14:14:18.532Z,45
2023-01-15T14:14:59.067Z,40
2023-01-15T14:15:39.596Z,45
2023-01-15T14:18:34.316Z,35
2023-01-15T14:19:16.334Z,40
2023-01-15T14:19:56.852Z,40
2023-01-15T14:20:38.910Z,50
2023-01-15T14:22:55.123Z,45
2023-01-15T14:23:36.344Z,60
2023-01-15T14:24:19.148Z,80
2023-01-15T14:25:02.314Z,65
2023-01-15T14:25:43.995Z,60
2023-01-15T14:27:07.641Z,60
2023-01-15T14:27:48.859Z,65
2023-01-15T14:28:30.036Z,70
2023-01-15T14:30:38.128Z,60
2023-01-15T14:31:18.689Z,65
2023-01-15T14:32:02.577Z,65
2023-01-15T14:32:49.364Z,85
2023-01-15T14:33:28.987Z,90
2023-01-15T14:34:09.511Z,105
2023-01-15T14:34:51.627Z,100
2023-01-15T14:36:19.539Z,90
2023-01-15T14:37:02.543Z,85
2023-01-15T14:38:33.333Z,80
2023-01-15T14:39:12.054Z,75
2023-01-15T14:42:30.999Z,65
2023-01-15T14:43:12.149Z,75
2023-01-15T14:43:53.230Z,85
2023-01-15T14:44:33.779Z,75
2023-01-15T14:46:48.299Z,60
2023-01-15T14:47:28.841Z,60
2023-01-15T14:48:09.360Z,55
2023-01-15T14:48:50.399Z,60
2023-01-15T14:52:13.025Z,65
2023-01-15T14:52:53.532Z,65
2023-01-15T14:53:34.049Z,65
2023-01-15T14:54:14.573Z,65
2023-01-15T14:54:55.092Z,70
2023-01-15T14:55:35.625Z,55
2023-01-15T14:56:16.146Z,45
2023-01-15T14:56:56.703Z,40
2023-01-15T15:02:23.148Z,40
2023-01-15T15:03:03.616Z,40
2023-01-15T15:03:44.104Z,40
2023-01-15T15:04:25.321Z,35
2023-01-15T15:05:05.838Z,35
2023-01-15T15:05:46.369Z,40
2023-01-15T15:06:26.887Z,40
2023-01-15T15:07:07.400Z,45
2023-01-15T15:07:47.949Z,45
2023-01-15T15:14:33.196Z,25
2023-01-15T15:15:13.746Z,25
2023-01-15T15:17:52.200Z,20
2023-01-15T15:18:32.710Z,20
2023-01-15T15:19:13.213Z,20
2023-01-15T15:19:53.758Z,20
2023-01-15T15:23:56.893Z,25
2023-01-15T15:24:37.411Z,25
2023-01-15T15:25:17.940Z,25
2023-01-15T15:25:58.477Z,25
2023-01-15T15:26:39.003Z,20
2023-01-15T15:27:19.505Z,20
2023-01-15T15:28:00.026Z,20
2023-01-15T15:28:40.594Z,20
2023-01-15T15:29:21.093Z,20
2023-01-15T15:30:01.735Z,20
2023-01-15T15:35:27.017Z,15
2023-01-15T15:36:07.526Z,15
2023-01-15T15:36:49.470Z,15
2023-01-15T15:37:30.012Z,15
2023-01-15T15:38:10.517Z,15
2023-01-15T15:38:51.030Z,10
2023-01-15T15:39:31.551Z,10
2023-01-15T15:45:37.212Z,10
2023-01-15T15:46:17.800Z,10
2023-01-15T15:46:58.256Z,10
2023-01-15T15:47:39.727Z,5
2023-01-15T15:48:20.256Z,5
2023-01-15T15:49:00.787Z,5
2023-01-15T15:49:41.334Z,5
2023-01-15T15:52:36.605Z,5
2023-01-15T15:53:17.181Z,5
2023-01-15T15:53:57.716Z,5
2023-01-15T15:54:38.264Z,5
2023-01-15T15:56:51.389Z,0
2023-01-15T15:57:32.497Z,0
2023-01-15T15:58:13.044Z,0
2023-01-15T15:58:53.555Z,0
2023-01-15T16:01:28.511Z,0
2023-01-15T16:02:09.180Z,0
2023-01-15T16:02:49.501Z,0
2023-01-15T16:03:32.609Z,0
2023-01-15T16:08:25.305Z,0
2023-01-15T16:09:06.469Z,0
2023-01-15T16:09:46.989Z,0
2023-01-15T16:10:27.529Z,0
2023-01-15T16:12:30.123Z,0
2023-01-15T16:13:10.644Z,0
2023-01-15T16:13:51.148Z,0
2023-01-15T16:14:31.670Z,0
2023-01-15T16:15:12.197Z,0
2023-01-15T16:15:55.968Z,0
2023-01-15T16:16:34.217Z,0
2023-01-15T16:17:14.744Z,0
2023-01-15T16:23:20.062Z,0
2023-01-15T16:24:00.594Z,0
2023-01-15T16:24:41.102Z,0
2023-01-15T16:25:21.621Z,0
2023-01-15T16:28:00.131Z,0
2023-01-15T16:28:40.628Z,0
2023-01-15T16:29:21.136Z,0
2023-01-15T16:30:01.657Z,0
2023-01-15T16:34:04.763Z,0
2023-01-15T16:34:45.269Z,0
2023-01-15T16:35:25.807Z,0
2023-01-15T16:36:06.328Z,0
2023-01-15T16:38:44.818Z,0
2023-01-15T16:39:25.351Z,0
2023-01-15T16:40:05.865Z,0
2023-01-15T16:40:46.364Z,0
2023-01-15T16:44:49.495Z,0
2023-01-15T16:45:30.023Z,0
2023-01-15T16:46:10.533Z,0
2023-01-15T16:46:51.038Z,0
2023-01-15T16:47:31.572Z,0
2023-01-15T16:48:12.099Z,0
2023-01-15T16:48:52.620Z,0
2023-01-15T16:49:33.155Z,0
2023-01-15T16:50:13.673Z,0
2023-01-15T16:50:54.168Z,0
2023-01-15T16:56:59.637Z,0
2023-01-15T16:57:40.196Z,0
2023-01-15T16:58:20.681Z,0
2023-01-15T16:59:01.187Z,0
2023-01-15T16:59:42.402Z,0
2023-01-15T17:00:22.903Z,0
2023-01-15T17:01:03.456Z,0
2023-01-15T17:01:44.105Z,0
2023-01-15T17:06:40.907Z,0
2023-01-15T17:07:21.452Z,0
2023-01-15T17:08:02.004Z,0
2023-01-15T17:08:42.537Z,0
2023-01-15T17:12:36.498Z,0
2023-01-15T17:13:17.004Z,0
2023-01-15T17:13:57.519Z,0
2023-01-15T17:14:38.054Z,0
2023-01-15T17:18:41.232Z,0
2023-01-15T17:19:22.600Z,0
2023-01-15T17:20:03.169Z,0
2023-01-15T17:22:41.645Z,0
2023-01-15T17:23:22.205Z,0
2023-01-15T17:24:02.709Z,0
2023-01-15T17:24:43.247Z,0
2023-01-15T17:30:18.605Z,0
2023-01-15T17:30:59.182Z,0
2023-01-15T17:31:39.690Z,0
2023-01-15T17:32:20.191Z,0
2023-01-15T17:34:49.097Z,0
2023-01-15T17:35:30.551Z,0
2023-01-15T17:36:11.947Z,0
2023-01-15T17:36:59.562Z,0
2023-01-15T17:37:40.865Z,0
2023-01-15T17:39:04.196Z,0
2023-01-15T17:41:32.471Z,0
2023-01-15T17:42:13.017Z,0
2023-01-15T17:42:53.535Z,0
2023-01-15T17:43:34.049Z,0
2023-01-15T17:45:48.663Z,0
2023-01-15T17:46:29.283Z,0
2023-01-15T17:47:09.702Z,0
2023-01-15T17:49:49.625Z,0
2023-01-15T17:50:30.182Z,0
2023-01-15T17:51:10.753Z,0
2023-01-15T17:51:51.305Z,0
2023-01-15T17:54:34.291Z,0
2023-01-15T17:55:14.788Z,0
2023-01-15T17:55:55.297Z,0
2023-01-15T17:56:35.858Z,0
2023-01-15T17:57:16.427Z,0
2023-01-15T17:59:54.929Z,0